Ridgeview, WV (25169)

07:29 PM EST del 31 Gennaio 2015 (GMT -0500)
SOD | Change Station
CLOSE
Current Station
Stazione meteo personale
Location: Sod, WV
Altitudine: 771 ft
Stazioni meteo nelle vicinanze

Alt. 771 ft 38.27 °N, 81.89 °W | Updated 3 seconds ago

Molto nuvoloso
Molto nuvoloso
30.3 °F
Sembra 30 °F
N
0.0
Vento Variabile Vento da Nord
Gusts 0.0 mph

Oggi
Massima -- | Minima -- °F
--% Possibilità di precip.
Ieri
Massima -- | Minima -- °F
Precip. -- in
7:32 AM 5:48 PM
Gobba a ponente, 92% visible
Pressione 30.33 in
Visibilità 10.0 miglia
Nuvole Nubi sparse 12000 ft
Molto nuvoloso 18000 ft
Molto nuvoloso 30000 ft
Raffreddamento del vento 30 °F
Punto di rugiada 24 °F
Umidità 77%
Piovosità 0.05 in
Spessore del manto nevoso Non disponibile.
Raggi UV 0 fuori da 12
Polline .10 fuori da 12
Qualità dell'aria Non disponibile.
Flu Activity Non disponibile.
METAR KCRW 312354Z 00000KT 10SM SCT120 BKN180 BKN300 01/M08 A3029 RMK AO2 SLP269 T00111083 10033 20000 53002

More Conditions Fewer Conditions

Pressione 30.33 in
Visibilità 10.0 miglia
Nuvole Nubi sparse 12000 ft
Molto nuvoloso 18000 ft
Molto nuvoloso 30000 ft
Raffreddamento del vento 30 °F
Punto di rugiada 24 °F
Umidità 77%
Piovosità 0.05 in
Spessore del manto nevoso Non disponibile.
Raggi UV 0 fuori da 12
Polline .10 fuori da 12
Qualità dell'aria Non disponibile.
Flu Activity Non disponibile.
METAR KCRW 312354Z 00000KT 10SM SCT120 BKN180 BKN300 01/M08 A3029 RMK AO2 SLP269 T00111083 10033 20000 53002

More Conditions Fewer Conditions

10-Day Weather Forecast

Almanac

Astronomia

Jan. 31, 2015 Alba Tramonto
Ora attuale
Crepuscolo civile
Crepuscolo nautico
Crepuscolo astronomico
Luna
Estensione della luce visibile
Lunghezza del giorno
Tomorrow will be .
, % of the Moon is Illuminated

Gli estremi di oggi

State Highs State Lows

Community

WunderPhotos

Upload Photos

1,792,255 foto caricate!

WunderBlogs® & News

Nearby

Qualità dell'aria

  Qualità dell'aria Indice AQ Inquinante
Not available.

Profondità neve

Stazione Profondità Altitudine

Attività sismica

Città  Distanza Mag. Data & Ora
Minimo Magnitudo Mostrato è 2.5.

Temperature delle acque costiere

Località Temperatura

Stazioni meteo nelle vicinanze